Time;durP1;ratioP1;P1;durP2;ratioP2;P2;SDS_P1;SDS_P2;PMS_P1;PMS_P2;Temp;Humidity;BMP_temperature;BMP_pressure;BME280_temperature;BME280_humidity;BME280_pressure;Samples;Min_cycle;Max_cycle;Signal;HPM_P1;HPM_P2
2023/05/07 00:02:25;;;;;;;35.33;17.45;;;;;;;;;;6215794;23;20027;-93
2023/05/07 00:04:51;;;;;;;33.88;17.40;;;;;;;;;;6216412;23;20009;-93
2023/05/07 00:07:22;;;;;;;37.33;17.88;;;;;;;;;;6243078;23;20036;-93
2023/05/07 00:09:49;;;;;;;39.88;18.67;;;;;;;;;;6217251;23;20036;-93
2023/05/07 00:12:17;;;;;;;38.65;18.65;;;;;;;;;;6219311;23;20008;-94
2023/05/07 00:14:43;;;;;;;37.67;17.98;;;;;;;;;;6216205;23;20012;-93
2023/05/07 00:17:12;;;;;;;36.22;18.20;;;;;;;;;;6215386;23;20008;-91
2023/05/07 00:19:40;;;;;;;37.03;18.23;;;;;;;;;;6214123;23;20773;-91
2023/05/07 00:22:06;;;;;;;36.28;18.55;;;;;;;;;;6214979;23;20035;-92
2023/05/07 00:24:35;;;;;;;39.38;18.17;;;;;;;;;;6215536;23;20559;-94
2023/05/07 00:27:01;;;;;;;34.10;17.25;;;;;;;;;;6242403;23;20036;-92
2023/05/07 00:29:28;;;;;;;36.30;18.08;;;;;;;;;;6216738;23;20170;-93
2023/05/07 00:31:57;;;;;;;32.10;17.63;;;;;;;;;;6216024;23;20020;-93
2023/05/07 00:34:30;;;;;;;42.10;18.38;;;;;;;;;;6216988;22;20047;-92
2023/05/07 00:36:56;;;;;;;40.92;19.65;;;;;;;;;;6217916;23;20447;-93
2023/05/07 00:39:22;;;;;;;34.20;18.60;;;;;;;;;;6214162;23;20021;-94
2023/05/07 00:41:48;;;;;;;40.70;20.35;;;;;;;;;;6215476;23;20015;-93
2023/05/07 00:44:14;;;;;;;40.95;19.42;;;;;;;;;;6214627;23;20478;-93
2023/05/07 00:46:41;;;;;;;41.85;20.75;;;;;;;;;;6190518;23;20541;-93
2023/05/07 00:49:08;;;;;;;38.10;19.08;;;;;;;;;;6215335;23;20339;-93
2023/05/07 00:51:34;;;;;;;39.45;18.80;;;;;;;;;;6217962;23;20016;-93
2023/05/07 00:54:01;;;;;;;37.85;19.83;;;;;;;;;;6217830;23;20359;-92
2023/05/07 00:56:27;;;;;;;37.15;20.45;;;;;;;;;;6215150;23;20509;-92
2023/05/07 00:58:54;;;;;;;45.58;20.30;;;;;;;;;;6218800;23;20068;-93
2023/05/07 01:01:20;;;;;;;45.72;21.58;;;;;;;;;;6247851;23;20427;-92
2023/05/07 01:03:46;;;;;;;44.20;19.63;;;;;;;;;;6218487;23;20092;-92
2023/05/07 01:06:16;;;;;;;43.13;20.60;;;;;;;;;;6223988;23;20035;-92
2023/05/07 01:08:43;;;;;;;39.22;20.08;;;;;;;;;;6221618;23;20020;-91
2023/05/07 01:11:10;;;;;;;41.78;21.33;;;;;;;;;;6244498;23;20028;-90
2023/05/07 01:13:37;;;;;;;47.20;22.02;;;;;;;;;;6245909;23;20015;-89
2023/05/07 01:16:07;;;;;;;46.25;23.17;;;;;;;;;;6221688;23;20023;-90
2023/05/07 01:18:33;;;;;;;42.65;22.48;;;;;;;;;;6222450;23;20694;-91
2023/05/07 01:21:01;;;;;;;44.70;19.60;;;;;;;;;;6221040;23;20100;-89
2023/05/07 01:23:28;;;;;;;47.80;23.48;;;;;;;;;;6248216;23;20536;-92
2023/05/07 01:25:55;;;;;;;49.08;23.10;;;;;;;;;;6249039;23;19993;-90
2023/05/07 01:28:28;;;;;;;51.97;24.45;;;;;;;;;;6221178;23;20037;-89
2023/05/07 01:30:56;;;;;;;47.22;23.55;;;;;;;;;;6217887;23;20024;-91
2023/05/07 01:33:23;;;;;;;50.05;24.92;;;;;;;;;;6245763;23;20451;-92
2023/05/07 01:35:56;;;;;;;49.40;22.75;;;;;;;;;;6248153;22;20021;-91
2023/05/07 01:38:23;;;;;;;41.63;21.67;;;;;;;;;;6245842;23;20064;-91
2023/05/07 01:40:56;;;;;;;50.25;24.83;;;;;;;;;;6219965;23;20150;-91
2023/05/07 01:43:25;;;;;;;45.83;21.83;;;;;;;;;;6243676;23;20015;-90
2023/05/07 01:45:53;;;;;;;41.92;22.65;;;;;;;;;;6245616;23;20267;-92
2023/05/07 01:48:19;;;;;;;44.22;22.10;;;;;;;;;;6222940;23;20564;-92
2023/05/07 01:50:46;;;;;;;52.75;24.08;;;;;;;;;;6244539;23;20009;-93
2023/05/07 01:53:27;;;;;;;45.08;20.67;;;;;;;;;;6216175;23;20009;-92
2023/05/07 01:55:56;;;;;;;51.22;22.10;;;;;;;;;;6241001;23;20005;-92
2023/05/07 01:58:22;;;;;;;55.50;23.52;;;;;;;;;;6217909;23;20009;-92
2023/05/07 02:00:48;;;;;;;53.03;22.00;;;;;;;;;;6216550;23;20232;-92
2023/05/07 02:03:17;;;;;;;52.13;23.27;;;;;;;;;;6188087;23;20068;-93
2023/05/07 02:05:46;;;;;;;51.13;23.35;;;;;;;;;;6216064;23;20009;-92
2023/05/07 02:08:12;;;;;;;46.35;21.83;;;;;;;;;;6241619;23;20368;-92
2023/05/07 02:10:39;;;;;;;52.72;22.95;;;;;;;;;;6214216;23;20079;-92
2023/05/07 02:13:05;;;;;;;55.70;23.83;;;;;;;;;;6214843;23;20070;-90
2023/05/07 02:15:35;;;;;;;53.33;24.10;;;;;;;;;;6216820;23;20019;-91
2023/05/07 02:18:06;;;;;;;57.50;23.98;;;;;;;;;;6222140;23;20005;-92
2023/05/07 02:20:32;;;;;;;51.30;23.75;;;;;;;;;;6242755;23;20060;-91
2023/05/07 02:23:04;;;;;;;59.25;25.67;;;;;;;;;;6243431;23;20067;-90
2023/05/07 02:25:35;;;;;;;54.38;24.83;;;;;;;;;;6217461;23;20008;-91
2023/05/07 02:28:01;;;;;;;61.10;25.40;;;;;;;;;;6216463;23;20015;-92
2023/05/07 02:30:28;;;;;;;64.03;27.10;;;;;;;;;;6218015;23;20461;-90
2023/05/07 02:33:09;;;;;;;59.80;27.92;;;;;;;;;;6241651;23;20228;-93
2023/05/07 02:35:43;;;;;;;63.78;27.73;;;;;;;;;;6220691;22;20028;-92
2023/05/07 02:38:11;;;;;;;63.35;29.88;;;;;;;;;;6241585;23;20008;-91
2023/05/07 02:40:40;;;;;;;65.32;29.50;;;;;;;;;;6215171;23;20051;-91
2023/05/07 02:43:08;;;;;;;65.30;28.98;;;;;;;;;;6215695;23;20017;-92
2023/05/07 02:45:35;;;;;;;65.05;28.10;;;;;;;;;;6240946;23;20005;-93
2023/05/07 02:48:02;;;;;;;66.05;28.30;;;;;;;;;;6214877;23;20068;-92
2023/05/07 02:50:30;;;;;;;62.38;26.73;;;;;;;;;;6216575;23;20013;-93
2023/05/07 02:52:56;;;;;;;62.78;24.10;;;;;;;;;;6215830;23;20348;-92
2023/05/07 02:55:22;;;;;;;71.57;26.73;;;;;;;;;;6214567;23;20047;-91
2023/05/07 02:57:49;;;;;;;59.75;26.00;;;;;;;;;;6240851;23;20091;-92
2023/05/07 03:00:17;;;;;;;59.08;23.67;;;;;;;;;;6216956;23;20055;-92
2023/05/07 03:02:44;;;;;;;47.67;20.83;;;;;;;;;;6241629;23;20465;-91
2023/05/07 03:05:10;;;;;;;57.05;25.77;;;;;;;;;;6242212;23;20079;-90
2023/05/07 03:07:40;;;;;;;57.58;26.52;;;;;;;;;;6216829;23;20020;-91
2023/05/07 03:10:07;;;;;;;55.22;24.75;;;;;;;;;;6240358;23;20015;-90
2023/05/07 03:12:33;;;;;;;56.92;23.90;;;;;;;;;;6241862;23;20080;-91
2023/05/07 03:14:59;;;;;;;64.65;26.77;;;;;;;;;;6214901;23;20028;-91
2023/05/07 03:17:26;;;;;;;71.00;28.70;;;;;;;;;;6216510;23;20251;-92
2023/05/07 03:19:53;;;;;;;58.58;25.83;;;;;;;;;;6221620;23;20012;-92
2023/05/07 03:22:20;;;;;;;61.15;27.52;;;;;;;;;;6241083;23;20475;-94
2023/05/07 03:24:46;;;;;;;64.45;24.75;;;;;;;;;;6214192;23;20070;-91
2023/05/07 03:27:13;;;;;;;63.33;24.42;;;;;;;;;;6191529;23;20004;-91
2023/05/07 03:29:39;;;;;;;55.70;25.15;;;;;;;;;;6215238;23;20009;-90
2023/05/07 03:32:06;;;;;;;62.28;25.52;;;;;;;;;;6215831;23;20580;-91
2023/05/07 03:34:32;;;;;;;64.88;22.95;;;;;;;;;;6245427;22;20019;-92
2023/05/07 03:36:58;;;;;;;63.33;26.58;;;;;;;;;;6219426;23;20016;-92
2023/05/07 03:39:25;;;;;;;60.33;25.38;;;;;;;;;;6221350;23;20437;-92
2023/05/07 03:41:51;;;;;;;52.42;22.85;;;;;;;;;;6219963;23;20098;-90
2023/05/07 03:44:21;;;;;;;55.90;23.25;;;;;;;;;;6220394;23;20016;-91
2023/05/07 03:46:47;;;;;;;65.43;24.95;;;;;;;;;;6220977;23;20508;-93
2023/05/07 03:49:14;;;;;;;56.22;23.15;;;;;;;;;;6220849;23;20366;-90
2023/05/07 03:51:40;;;;;;;61.15;24.20;;;;;;;;;;6219807;23;20013;-91
2023/05/07 03:54:06;;;;;;;61.20;25.95;;;;;;;;;;6248336;23;20019;-91
2023/05/07 03:56:32;;;;;;;69.43;26.65;;;;;;;;;;6244120;23;20036;-91
2023/05/07 03:58:58;;;;;;;62.65;27.17;;;;;;;;;;6246257;23;20012;-91
2023/05/07 04:01:24;;;;;;;57.75;24.90;;;;;;;;;;6249908;23;20008;-90
2023/05/07 04:03:51;;;;;;;69.70;26.73;;;;;;;;;;6219842;23;20012;-90
2023/05/07 04:06:27;;;;;;;69.10;28.58;;;;;;;;;;6219940;23;20014;-92
2023/05/07 04:08:53;;;;;;;66.93;26.88;;;;;;;;;;6219965;23;20508;-91
2023/05/07 04:11:20;;;;;;;77.28;31.23;;;;;;;;;;6218949;23;20434;-91
2023/05/07 04:13:47;;;;;;;64.10;26.65;;;;;;;;;;6243264;23;20016;-91
2023/05/07 04:16:13;;;;;;;61.70;25.75;;;;;;;;;;6219103;23;20008;-91
2023/05/07 04:18:43;;;;;;;67.18;28.75;;;;;;;;;;6243921;23;20367;-91
2023/05/07 04:21:17;;;;;;;63.85;26.88;;;;;;;;;;6244138;23;20011;-91
2023/05/07 04:23:45;;;;;;;65.10;25.25;;;;;;;;;;6241932;23;20016;-91
2023/05/07 04:26:14;;;;;;;57.38;25.88;;;;;;;;;;6246762;23;20001;-90
2023/05/07 04:28:41;;;;;;;66.10;26.02;;;;;;;;;;6219725;23;20012;-91
2023/05/07 04:31:10;;;;;;;49.85;25.45;;;;;;;;;;6245319;23;20004;-91
2023/05/07 04:33:36;;;;;;;72.53;27.20;;;;;;;;;;6246155;23;20036;-91
2023/05/07 04:36:03;;;;;;;63.17;26.23;;;;;;;;;;6243366;22;20024;-91
2023/05/07 04:38:40;;;;;;;57.00;25.10;;;;;;;;;;6217031;23;20004;-91
2023/05/07 04:41:07;;;;;;;58.63;23.80;;;;;;;;;;6216908;23;20183;-90
2023/05/07 04:43:33;;;;;;;60.80;26.05;;;;;;;;;;6193199;23;20342;-90
2023/05/07 04:46:20;;;;;;;57.10;25.02;;;;;;;;;;6215616;23;20004;-90
2023/05/07 04:48:49;;;;;;;50.15;22.52;;;;;;;;;;6182347;23;20012;-91
2023/05/07 04:51:15;;;;;;;60.08;23.83;;;;;;;;;;6191434;23;20013;-90
2023/05/07 04:53:44;;;;;;;45.63;16.75;;;;;;;;;;6191873;23;20025;-89
2023/05/07 04:56:10;;;;;;;58.45;21.52;;;;;;;;;;6166729;23;20195;-90
2023/05/07 04:58:36;;;;;;;43.22;22.27;;;;;;;;;;6191286;23;20063;-90
2023/05/07 05:01:03;;;;;;;47.42;21.75;;;;;;;;;;6217108;23;20498;-91
2023/05/07 05:03:30;;;;;;;51.70;21.63;;;;;;;;;;6196921;23;20012;-90
2023/05/07 05:05:59;;;;;;;54.35;22.35;;;;;;;;;;6195759;23;20016;-90
2023/05/07 05:08:25;;;;;;;46.47;20.92;;;;;;;;;;6199141;23;20008;-90
2023/05/07 05:10:51;;;;;;;43.53;20.67;;;;;;;;;;6213517;23;20059;-90
2023/05/07 05:13:18;;;;;;;50.42;20.95;;;;;;;;;;6191702;23;20090;-91
2023/05/07 05:15:46;;;;;;;47.83;21.77;;;;;;;;;;6190830;23;20005;-91
2023/05/07 05:18:12;;;;;;;49.65;20.40;;;;;;;;;;6191249;23;20448;-90
2023/05/07 05:20:38;;;;;;;48.28;21.33;;;;;;;;;;6189585;23;20016;-91
2023/05/07 05:23:04;;;;;;;42.17;19.85;;;;;;;;;;6190907;23;20013;-89
2023/05/07 05:25:31;;;;;;;40.80;18.75;;;;;;;;;;6195184;23;20020;-89
2023/05/07 05:28:01;;;;;;;43.80;18.65;;;;;;;;;;6224196;23;19981;-95
2023/05/07 05:30:27;;;;;;;45.03;20.15;;;;;;;;;;6196437;23;20005;-93
2023/05/07 05:32:54;;;;;;;41.65;19.80;;;;;;;;;;6223274;23;20008;-91
2023/05/07 05:35:20;;;;;;;48.55;20.90;;;;;;;;;;6228568;22;20020;-93
2023/05/07 05:37:48;;;;;;;41.25;21.27;;;;;;;;;;6225222;23;20012;-93
2023/05/07 05:40:18;;;;;;;42.22;22.05;;;;;;;;;;6235011;23;20017;-92
2023/05/07 05:42:45;;;;;;;41.05;19.60;;;;;;;;;;6235754;23;20008;-92
2023/05/07 05:45:14;;;;;;;44.85;21.00;;;;;;;;;;6236687;23;20004;-96
2023/05/07 05:47:40;;;;;;;41.45;19.60;;;;;;;;;;6239246;23;20013;-94
2023/05/07 05:50:07;;;;;;;46.03;21.60;;;;;;;;;;6235156;22;20031;-95
2023/05/07 05:52:33;;;;;;;38.13;18.00;;;;;;;;;;6237225;23;20007;-95
2023/05/07 05:54:59;;;;;;;40.10;20.55;;;;;;;;;;6236475;23;20016;-94
2023/05/07 05:57:25;;;;;;;45.80;21.75;;;;;;;;;;6224162;23;20618;-95
2023/05/07 05:59:52;;;;;;;38.00;19.17;;;;;;;;;;6220124;23;20050;-94
2023/05/07 06:02:24;;;;;;;41.30;19.95;;;;;;;;;;6245552;23;20546;-92
2023/05/07 06:04:50;;;;;;;39.65;20.70;;;;;;;;;;6243355;23;20351;-93
2023/05/07 06:07:16;;;;;;;52.83;22.58;;;;;;;;;;6220116;23;20037;-93
2023/05/07 06:09:44;;;;;;;42.40;21.23;;;;;;;;;;6219630;23;20017;-92
2023/05/07 06:12:10;;;;;;;46.72;20.92;;;;;;;;;;6217861;23;20020;-93
2023/05/07 06:14:40;;;;;;;35.00;19.20;;;;;;;;;;6244643;23;20009;-93
2023/05/07 06:17:07;;;;;;;41.70;20.08;;;;;;;;;;6224225;23;20020;-93
2023/05/07 06:19:33;;;;;;;41.75;20.73;;;;;;;;;;6244666;23;20032;-93
2023/05/07 06:22:01;;;;;;;48.20;20.83;;;;;;;;;;6214810;23;20005;-94
2023/05/07 06:24:27;;;;;;;46.83;24.30;;;;;;;;;;6215897;23;20459;-96
2023/05/07 06:26:54;;;;;;;52.65;24.98;;;;;;;;;;6215752;23;20013;-94
2023/05/07 06:29:20;;;;;;;48.53;23.35;;;;;;;;;;6240479;23;20000;-94
2023/05/07 06:31:46;;;;;;;59.85;28.30;;;;;;;;;;6215827;23;20020;-95
2023/05/07 06:34:15;;;;;;;49.13;24.85;;;;;;;;;;6239254;23;20343;-95
2023/05/07 06:36:42;;;;;;;62.50;26.50;;;;;;;;;;6239813;22;20030;-94
2023/05/07 06:39:08;;;;;;;46.78;23.05;;;;;;;;;;6215808;23;20352;-92
2023/05/07 06:41:35;;;;;;;62.88;27.30;;;;;;;;;;6215057;23;20222;-93
2023/05/07 06:44:02;;;;;;;55.55;23.17;;;;;;;;;;6240481;23;20164;-94
2023/05/07 06:46:37;;;;;;;44.72;22.60;;;;;;;;;;6216808;23;20092;-95
2023/05/07 06:49:04;;;;;;;46.92;23.73;;;;;;;;;;6240320;23;20004;-95
2023/05/07 06:51:30;;;;;;;43.88;21.52;;;;;;;;;;6216448;23;20020;-94
2023/05/07 06:53:56;;;;;;;39.40;20.60;;;;;;;;;;6216465;23;20016;-93
2023/05/07 06:56:23;;;;;;;41.92;19.55;;;;;;;;;;6217178;23;20017;-94
2023/05/07 06:58:49;;;;;;;37.22;18.13;;;;;;;;;;6216833;23;20030;-94
2023/05/07 07:01:19;;;;;;;36.05;19.13;;;;;;;;;;6216020;23;20068;-93
2023/05/07 07:03:48;;;;;;;35.63;19.55;;;;;;;;;;6217461;23;20020;-94
2023/05/07 07:06:15;;;;;;;39.88;19.70;;;;;;;;;;6218266;23;20023;-94
2023/05/07 07:08:41;;;;;;;36.45;18.90;;;;;;;;;;6240131;23;20008;-94
2023/05/07 07:11:09;;;;;;;33.65;17.42;;;;;;;;;;6237713;23;20015;-94
2023/05/07 07:13:42;;;;;;;36.13;18.10;;;;;;;;;;6242316;23;20040;-94
2023/05/07 07:16:09;;;;;;;35.78;19.10;;;;;;;;;;6219088;23;20080;-95
2023/05/07 07:18:38;;;;;;;37.25;17.25;;;;;;;;;;6215932;23;20334;-94
2023/05/07 07:21:13;;;;;;;43.83;20.92;;;;;;;;;;6215561;23;20031;-94
2023/05/07 07:23:48;;;;;;;36.03;17.48;;;;;;;;;;6215478;23;20113;-93
2023/05/07 07:26:14;;;;;;;47.15;18.73;;;;;;;;;;6216005;23;20458;-93
2023/05/07 07:28:44;;;;;;;38.42;19.95;;;;;;;;;;6238981;23;20768;-94
2023/05/07 07:31:11;;;;;;;39.78;17.25;;;;;;;;;;6213257;23;20043;-93
2023/05/07 07:33:40;;;;;;;34.97;17.98;;;;;;;;;;6241191;23;20012;-91
2023/05/07 07:36:07;;;;;;;39.30;18.25;;;;;;;;;;6222151;22;20024;-92
2023/05/07 07:38:37;;;;;;;39.38;19.20;;;;;;;;;;6241530;23;20070;-89
2023/05/07 07:41:03;;;;;;;39.97;19.67;;;;;;;;;;6246569;23;20024;-95
2023/05/07 07:43:29;;;;;;;41.38;19.00;;;;;;;;;;6246870;23;20012;-94
2023/05/07 07:45:55;;;;;;;37.72;18.25;;;;;;;;;;6247174;23;20453;-96
2023/05/07 07:48:35;;;;;;;36.30;18.33;;;;;;;;;;6226302;23;20064;-95
2023/05/07 07:51:01;;;;;;;41.28;18.20;;;;;;;;;;6250966;23;20065;-94
2023/05/07 07:53:33;;;;;;;38.40;19.77;;;;;;;;;;6250306;23;20028;-96
2023/05/07 07:56:06;;;;;;;38.33;20.00;;;;;;;;;;6227306;23;20008;-95
2023/05/07 07:58:35;;;;;;;39.97;17.63;;;;;;;;;;6225379;23;20501;-95
2023/05/07 08:01:09;;;;;;;46.35;19.67;;;;;;;;;;6231057;23;20379;-96
2023/05/07 08:03:39;;;;;;;44.47;19.70;;;;;;;;;;6205965;23;20016;-95
2023/05/07 08:06:08;;;;;;;37.72;18.88;;;;;;;;;;6250833;23;20005;-94
2023/05/07 08:08:34;;;;;;;38.20;18.40;;;;;;;;;;6251855;23;20498;-93
2023/05/07 08:11:09;;;;;;;36.58;18.15;;;;;;;;;;6219600;23;20066;-93
2023/05/07 08:13:35;;;;;;;38.38;18.75;;;;;;;;;;6240881;23;20000;-92
2023/05/07 08:16:01;;;;;;;35.17;17.98;;;;;;;;;;6217848;23;20027;-94
2023/05/07 08:18:28;;;;;;;35.97;17.48;;;;;;;;;;6189706;23;20028;-93
2023/05/07 08:20:57;;;;;;;36.20;15.70;;;;;;;;;;6216506;23;20009;-93
2023/05/07 08:23:23;;;;;;;35.80;17.08;;;;;;;;;;6241645;23;20059;-92
2023/05/07 08:25:51;;;;;;;36.83;19.15;;;;;;;;;;6244631;23;20514;-94
2023/05/07 08:28:17;;;;;;;28.02;14.43;;;;;;;;;;6216499;23;20434;-92
2023/05/07 08:30:44;;;;;;;30.58;16.70;;;;;;;;;;6215235;23;20016;-94
2023/05/07 08:33:13;;;;;;;35.30;18.45;;;;;;;;;;6219549;23;20008;-94
2023/05/07 08:35:48;;;;;;;35.05;18.38;;;;;;;;;;6256094;22;20027;-93
2023/05/07 08:38:20;;;;;;;32.15;17.50;;;;;;;;;;6230212;23;20012;-92
2023/05/07 08:40:46;;;;;;;34.80;17.40;;;;;;;;;;6248726;23;20023;-94
2023/05/07 08:43:13;;;;;;;32.58;16.23;;;;;;;;;;6222490;23;20028;-93
2023/05/07 08:45:41;;;;;;;33.38;17.48;;;;;;;;;;6246367;23;20015;-95
2023/05/07 08:48:16;;;;;;;32.42;17.98;;;;;;;;;;6221443;23;20015;-93
2023/05/07 08:50:42;;;;;;;32.10;16.77;;;;;;;;;;6248543;23;20004;-93
2023/05/07 08:53:08;;;;;;;34.28;16.83;;;;;;;;;;6245337;23;20008;-93
2023/05/07 08:55:35;;;;;;;31.27;17.02;;;;;;;;;;6222016;23;20012;-92
2023/05/07 08:58:01;;;;;;;32.10;15.93;;;;;;;;;;6251568;23;20030;-93
2023/05/07 09:00:27;;;;;;;35.72;16.60;;;;;;;;;;6227816;23;20462;-90
2023/05/07 09:02:54;;;;;;;31.60;16.48;;;;;;;;;;6224962;23;20028;-88
2023/05/07 09:05:20;;;;;;;30.23;16.83;;;;;;;;;;6248740;23;20008;-90
2023/05/07 09:07:47;;;;;;;37.13;18.42;;;;;;;;;;6223921;23;20070;-88
2023/05/07 09:10:13;;;;;;;33.03;16.80;;;;;;;;;;6247352;23;20058;-92
2023/05/07 09:12:40;;;;;;;31.85;16.55;;;;;;;;;;6222837;23;20431;-92
2023/05/07 09:15:14;;;;;;;33.33;17.42;;;;;;;;;;6252191;23;20430;-89
2023/05/07 09:17:42;;;;;;;37.85;17.60;;;;;;;;;;6248600;23;20095;-89
2023/05/07 09:20:08;;;;;;;39.47;17.73;;;;;;;;;;6247569;23;20019;-90
2023/05/07 09:22:36;;;;;;;34.88;18.70;;;;;;;;;;6220754;23;20023;-90
2023/05/07 09:25:04;;;;;;;34.72;16.98;;;;;;;;;;6248431;23;20299;-93
2023/05/07 09:27:31;;;;;;;37.13;19.90;;;;;;;;;;6249461;23;20121;-94
2023/05/07 09:29:58;;;;;;;28.75;16.00;;;;;;;;;;6250052;23;20012;-95
2023/05/07 09:32:27;;;;;;;32.08;16.25;;;;;;;;;;6251770;23;20010;-96
2023/05/07 09:34:53;;;;;;;33.00;16.70;;;;;;;;;;6248336;23;20371;-94
2023/05/07 09:37:19;;;;;;;34.22;17.27;;;;;;;;;;6249294;22;20038;-94
2023/05/07 09:39:47;;;;;;;32.65;17.20;;;;;;;;;;6250882;23;20051;-95
2023/05/07 09:42:16;;;;;;;29.25;15.90;;;;;;;;;;6263208;22;19993;-94
2023/05/07 09:44:44;;;;;;;25.75;15.02;;;;;;;;;;6238549;22;20047;-96
2023/05/07 09:47:11;;;;;;;31.48;16.27;;;;;;;;;;6262455;22;20005;-93
2023/05/07 09:49:39;;;;;;;28.10;16.25;;;;;;;;;;6261495;23;20001;-94
2023/05/07 09:52:08;;;;;;;28.92;15.50;;;;;;;;;;6258778;23;20020;-93
2023/05/07 09:54:35;;;;;;;30.05;16.17;;;;;;;;;;6232414;23;20008;-95
2023/05/07 09:57:06;;;;;;;28.42;15.30;;;;;;;;;;6257539;23;20055;-94
2023/05/07 09:59:33;;;;;;;30.15;17.27;;;;;;;;;;6252921;23;20008;-93
2023/05/07 10:02:00;;;;;;;27.80;15.77;;;;;;;;;;6221968;23;20009;-94
2023/05/07 10:04:28;;;;;;;32.25;15.52;;;;;;;;;;6222042;23;20371;-95
2023/05/07 10:06:55;;;;;;;27.38;14.75;;;;;;;;;;6246265;23;20005;-94
2023/05/07 10:09:22;;;;;;;23.55;13.82;;;;;;;;;;6246496;23;20502;-94
2023/05/07 10:11:49;;;;;;;30.15;15.43;;;;;;;;;;6246390;23;20012;-92
2023/05/07 10:14:20;;;;;;;25.88;15.73;;;;;;;;;;6223375;23;20007;-93
2023/05/07 10:16:48;;;;;;;27.42;15.30;;;;;;;;;;6245390;23;20055;-92
2023/05/07 10:19:15;;;;;;;23.60;14.20;;;;;;;;;;6220765;23;20013;-94
2023/05/07 10:22:11;;;;;;;31.90;14.25;;;;;;;;;;6218977;23;20051;-94
2023/05/07 10:24:38;;;;;;;26.30;14.32;;;;;;;;;;6200293;23;20224;-94
2023/05/07 10:29:55;;;;;;;30.55;13.80;;;;;;;;;;6207021;23;20035;-93
2023/05/07 10:32:40;;;;;;;25.30;14.65;;;;;;;;;;6242610;23;20011;-94
2023/05/07 10:35:13;;;;;;;24.10;14.35;;;;;;;;;;6242603;23;20497;-94
2023/05/07 10:37:46;;;;;;;22.42;13.80;;;;;;;;;;6244449;22;20027;-93
2023/05/07 10:40:21;;;;;;;25.00;15.02;;;;;;;;;;6217013;23;20017;-94
2023/05/07 10:43:01;;;;;;;26.50;14.38;;;;;;;;;;6242795;23;20443;-93
2023/05/07 10:45:27;;;;;;;23.10;13.98;;;;;;;;;;6242241;23;20017;-93
2023/05/07 10:48:12;;;;;;;28.02;15.07;;;;;;;;;;6244646;23;20012;-93
2023/05/07 10:50:38;;;;;;;27.58;16.05;;;;;;;;;;6242538;23;20011;-92
2023/05/07 10:53:17;;;;;;;24.42;14.02;;;;;;;;;;6217498;23;20039;-94
2023/05/07 10:56:02;;;;;;;24.15;14.23;;;;;;;;;;6242422;23;20008;-93
2023/05/07 10:58:28;;;;;;;23.65;14.18;;;;;;;;;;6241583;23;20397;-95
2023/05/07 11:00:59;;;;;;;22.67;13.52;;;;;;;;;;6217805;23;20048;-93
2023/05/07 11:03:29;;;;;;;24.73;13.98;;;;;;;;;;6243583;23;20009;-93
2023/05/07 11:06:34;;;;;;;25.90;14.07;;;;;;;;;;6221084;23;20011;-93
2023/05/07 11:09:00;;;;;;;27.50;13.80;;;;;;;;;;6241486;23;20028;-92
2023/05/07 11:12:05;;;;;;;24.05;13.77;;;;;;;;;;6215094;23;20091;-93
2023/05/07 11:14:43;;;;;;;21.13;13.57;;;;;;;;;;6133739;23;20005;-94
2023/05/07 11:17:10;;;;;;;19.30;12.82;;;;;;;;;;6132582;23;20013;-93
2023/05/07 11:19:52;;;;;;;20.70;13.10;;;;;;;;;;6180749;23;20004;-96
2023/05/07 11:22:35;;;;;;;21.75;13.25;;;;;;;;;;6246096;23;20099;-93
2023/05/07 11:25:05;;;;;;;25.23;12.50;;;;;;;;;;6247012;23;20008;-94
2023/05/07 11:27:31;;;;;;;16.15;10.75;;;;;;;;;;6244762;23;20005;-95
2023/05/07 11:29:58;;;;;;;20.92;12.15;;;;;;;;;;6247709;23;20004;-93
2023/05/07 11:32:29;;;;;;;22.38;11.90;;;;;;;;;;6248521;23;20089;-95
2023/05/07 11:34:56;;;;;;;20.48;11.95;;;;;;;;;;6242541;23;20008;-93
2023/05/07 11:37:23;;;;;;;19.80;12.30;;;;;;;;;;6250835;22;20150;-95
2023/05/07 11:40:07;;;;;;;19.63;12.23;;;;;;;;;;6246159;23;20009;-94
2023/05/07 11:42:52;;;;;;;16.90;12.65;;;;;;;;;;6245671;23;20375;-94
2023/05/07 11:45:26;;;;;;;17.38;11.98;;;;;;;;;;6240895;23;20021;-94
2023/05/07 11:48:03;;;;;;;19.15;11.43;;;;;;;;;;6220602;23;20008;-94
2023/05/07 11:50:29;;;;;;;17.75;12.30;;;;;;;;;;6247027;23;20008;-94
2023/05/07 11:52:57;;;;;;;17.35;11.23;;;;;;;;;;6221675;23;20008;-96
2023/05/07 11:55:27;;;;;;;16.25;11.02;;;;;;;;;;6223411;23;20470;-95
2023/05/07 11:57:53;;;;;;;18.05;10.85;;;;;;;;;;6227046;23;20091;-95
2023/05/07 12:00:22;;;;;;;18.05;11.98;;;;;;;;;;6253201;23;20011;-95
2023/05/07 12:03:07;;;;;;;;;;;;;;;;;;;;;
2023/05/07 12:05:56;;;;;;;14.93;10.40;;;;;;;;;;6224043;23;20028;-96
2023/05/07 12:08:26;;;;;;;16.33;10.82;;;;;;;;;;6252857;23;19988;-96
2023/05/07 12:10:52;;;;;;;15.95;11.02;;;;;;;;;;6197068;23;20033;-96
2023/05/07 12:13:27;;;;;;;18.02;10.45;;;;;;;;;;6251204;23;20031;-96
2023/05/07 12:15:58;;;;;;;13.43;9.77;;;;;;;;;;6249883;23;20064;-96
2023/05/07 12:18:24;;;;;;;17.83;11.45;;;;;;;;;;6246991;23;20007;-96
2023/05/07 12:20:51;;;;;;;14.13;10.60;;;;;;;;;;6246547;23;20394;-96
2023/05/07 12:23:18;;;;;;;15.15;10.23;;;;;;;;;;6198913;23;20017;-93
2023/05/07 12:25:47;;;;;;;13.50;10.02;;;;;;;;;;6253427;23;20008;-96
2023/05/07 12:28:33;;;;;;;17.73;11.43;;;;;;;;;;6259203;23;20020;-96
2023/05/07 12:31:00;;;;;;;;;;;;;;;;;;6233349;23;20025;-96
2023/05/07 12:33:28;;;;;;;14.35;10.13;;;;;;;;;;6228918;23;19907;-95
2023/05/07 12:35:58;;;;;;;15.73;10.45;;;;;;;;;;6249499;23;20008;-96
2023/05/07 12:38:33;;;;;;;15.07;11.35;;;;;;;;;;6256881;22;20347;-95
2023/05/07 12:41:00;;;;;;;17.77;11.82;;;;;;;;;;6203341;23;20020;-95
2023/05/07 12:43:32;;;;;;;14.73;10.68;;;;;;;;;;6255175;23;20056;-96
2023/05/07 12:46:01;;;;;;;16.17;11.73;;;;;;;;;;6262599;23;20222;-95
2023/05/07 12:48:40;;;;;;;16.40;11.18;;;;;;;;;;6261552;23;20012;-95
2023/05/07 12:51:12;;;;;;;18.40;11.07;;;;;;;;;;6232755;23;20004;-96
2023/05/07 12:53:45;;;;;;;15.52;10.68;;;;;;;;;;6259822;23;20020;-95
2023/05/07 12:56:17;;;;;;;14.23;11.18;;;;;;;;;;6236513;23;20332;-96
2023/05/07 12:58:46;;;;;;;14.02;10.65;;;;;;;;;;6208303;23;19988;-95
2023/05/07 13:01:15;;;;;;;13.20;9.18;;;;;;;;;;6261288;22;20005;-96
2023/05/07 13:03:44;;;;;;;16.52;11.80;;;;;;;;;;6235504;23;20008;-96
2023/05/07 13:06:12;;;;;;;14.25;9.77;;;;;;;;;;6236319;23;20027;-96
2023/05/07 13:08:43;;;;;;;18.05;11.88;;;;;;;;;;6264278;23;20000;-96
2023/05/07 13:11:11;;;;;;;18.02;12.43;;;;;;;;;;6239023;23;20035;-96
2023/05/07 13:13:44;;;;;;;16.98;12.35;;;;;;;;;;6262225;23;20055;-96
2023/05/07 13:16:13;;;;;;;13.60;10.73;;;;;;;;;;6263258;23;20079;-96
2023/05/07 13:18:45;;;;;;;15.55;11.25;;;;;;;;;;6237154;23;19993;-96
2023/05/07 13:21:17;;;;;;;13.40;10.43;;;;;;;;;;6262163;23;19989;-96
2023/05/07 13:23:43;;;;;;;13.55;10.80;;;;;;;;;;6260228;23;20004;-96
2023/05/07 13:26:10;;;;;;;15.50;11.70;;;;;;;;;;6256777;23;20027;-96
2023/05/07 13:28:44;;;;;;;15.75;10.95;;;;;;;;;;6235850;23;20117;-96
2023/05/07 13:31:10;;;;;;;15.43;11.15;;;;;;;;;;6229632;23;20012;-96
2023/05/07 13:33:49;;;;;;;12.75;10.38;;;;;;;;;;6234164;23;20382;-96
2023/05/07 13:36:16;;;;;;;15.98;10.60;;;;;;;;;;6221675;23;20026;-96
2023/05/07 13:38:51;;;;;;;15.60;11.68;;;;;;;;;;6232226;22;20024;-96
2023/05/07 13:41:17;;;;;;;15.35;10.43;;;;;;;;;;6258075;23;20008;-95
2023/05/07 13:43:44;;;;;;;15.18;11.40;;;;;;;;;;6255999;23;20004;-96
2023/05/07 13:46:10;;;;;;;13.35;10.48;;;;;;;;;;6238831;22;20013;-95
2023/05/07 13:48:36;;;;;;;11.32;9.43;;;;;;;;;;6238897;22;20025;-96
2023/05/07 13:51:05;;;;;;;12.68;9.68;;;;;;;;;;6234454;23;20013;-95
2023/05/07 13:53:31;;;;;;;11.75;9.65;;;;;;;;;;6228826;23;20016;-94
2023/05/07 13:56:01;;;;;;;14.00;9.93;;;;;;;;;;6229057;23;20044;-95
2023/05/07 13:58:45;;;;;;;11.63;9.25;;;;;;;;;;6231305;23;20008;-95
2023/05/07 14:01:11;;;;;;;13.70;10.32;;;;;;;;;;6256663;22;20008;-95
2023/05/07 14:03:40;;;;;;;16.92;10.80;;;;;;;;;;6223967;23;20545;-94
2023/05/07 14:06:06;;;;;;;12.90;10.10;;;;;;;;;;6243897;23;20068;-94
2023/05/07 14:08:32;;;;;;;13.48;9.65;;;;;;;;;;6217580;23;20290;-94
2023/05/07 14:10:59;;;;;;;13.95;9.43;;;;;;;;;;6247759;23;20254;-95
2023/05/07 14:13:27;;;;;;;12.93;9.82;;;;;;;;;;6220264;23;20023;-96
2023/05/07 14:18:38;;;;;;;11.75;9.23;;;;;;;;;;6246703;22;20031;-89
2023/05/07 14:21:06;;;;;;;10.65;9.02;;;;;;;;;;6198300;23;20023;-89
2023/05/07 14:23:33;;;;;;;10.75;9.23;;;;;;;;;;6250304;23;20032;-89
2023/05/07 14:25:59;;;;;;;11.38;9.35;;;;;;;;;;6223606;23;20000;-88
2023/05/07 14:28:25;;;;;;;11.57;8.70;;;;;;;;;;6222929;23;20086;-89
2023/05/07 14:30:52;;;;;;;14.88;8.73;;;;;;;;;;6195313;23;20009;-88
2023/05/07 14:33:24;;;;;;;11.93;9.38;;;;;;;;;;6197564;23;20490;-89
2023/05/07 14:35:53;;;;;;;11.25;9.18;;;;;;;;;;6223036;23;20486;-89